sensor_id;sensor_type;location;lat;lon;timestamp;P1;durP1;ratioP1;P2;durP2;ratioP2
21000;SDS011;10658;50.920;12.238;2023-01-01T00:01:11;7.15;;;4.55;;
21000;SDS011;10658;50.920;12.238;2023-01-01T00:05:15;5.03;;;4.20;;
21000;SDS011;10658;50.920;12.238;2023-01-01T00:09:17;5.20;;;3.58;;
21000;SDS011;10658;50.920;12.238;2023-01-01T00:13:38;5.80;;;3.50;;
21000;SDS011;10658;50.920;12.238;2023-01-01T00:17:40;6.72;;;3.38;;
21000;SDS011;10658;50.920;12.238;2023-01-01T00:21:44;4.60;;;3.20;;
21000;SDS011;10658;50.920;12.238;2023-01-01T00:25:47;4.65;;;2.88;;
21000;SDS011;10658;50.920;12.238;2023-01-01T00:29:48;4.38;;;2.83;;
21000;SDS011;10658;50.920;12.238;2023-01-01T00:33:51;5.38;;;2.90;;
21000;SDS011;10658;50.920;12.238;2023-01-01T00:37:55;4.55;;;3.10;;
21000;SDS011;10658;50.920;12.238;2023-01-01T00:41:58;5.93;;;3.13;;
21000;SDS011;10658;50.920;12.238;2023-01-01T00:45:59;4.03;;;3.17;;
21000;SDS011;10658;50.920;12.238;2023-01-01T00:50:01;5.70;;;3.55;;
21000;SDS011;10658;50.920;12.238;2023-01-01T00:54:04;5.35;;;3.90;;
21000;SDS011;10658;50.920;12.238;2023-01-01T00:58:05;3.88;;;2.38;;
21000;SDS011;10658;50.920;12.238;2023-01-01T01:02:09;4.18;;;3.15;;
21000;SDS011;10658;50.920;12.238;2023-01-01T01:06:10;4.72;;;3.05;;
21000;SDS011;10658;50.920;12.238;2023-01-01T01:10:12;4.07;;;2.72;;
21000;SDS011;10658;50.920;12.238;2023-01-01T01:14:13;5.22;;;2.90;;
21000;SDS011;10658;50.920;12.238;2023-01-01T01:18:15;9.95;;;3.92;;
21000;SDS011;10658;50.920;12.238;2023-01-01T01:22:18;4.85;;;2.90;;
21000;SDS011;10658;50.920;12.238;2023-01-01T01:26:23;4.63;;;3.55;;
21000;SDS011;10658;50.920;12.238;2023-01-01T01:30:27;4.63;;;2.80;;
21000;SDS011;10658;50.920;12.238;2023-01-01T01:34:29;6.63;;;3.67;;
21000;SDS011;10658;50.920;12.238;2023-01-01T01:38:31;4.75;;;2.80;;
21000;SDS011;10658;50.920;12.238;2023-01-01T01:42:33;7.53;;;2.53;;
21000;SDS011;10658;50.920;12.238;2023-01-01T01:46:39;6.63;;;3.50;;
21000;SDS011;10658;50.920;12.238;2023-01-01T01:50:44;4.95;;;3.28;;
21000;SDS011;10658;50.920;12.238;2023-01-01T01:54:48;5.25;;;3.08;;
21000;SDS011;10658;50.920;12.238;2023-01-01T01:58:50;7.30;;;3.30;;
21000;SDS011;10658;50.920;12.238;2023-01-01T02:02:58;4.55;;;3.63;;
21000;SDS011;10658;50.920;12.238;2023-01-01T02:07:18;5.10;;;4.00;;
21000;SDS011;10658;50.920;12.238;2023-01-01T02:11:22;6.25;;;3.72;;
21000;SDS011;10658;50.920;12.238;2023-01-01T02:15:25;6.32;;;4.20;;
21000;SDS011;10658;50.920;12.238;2023-01-01T02:19:53;5.43;;;3.58;;
21000;SDS011;10658;50.920;12.238;2023-01-01T02:29:00;6.38;;;3.25;;
21000;SDS011;10658;50.920;12.238;2023-01-01T02:33:23;6.05;;;3.40;;
21000;SDS011;10658;50.920;12.238;2023-01-01T02:37:26;5.38;;;3.03;;
21000;SDS011;10658;50.920;12.238;2023-01-01T02:41:30;6.32;;;3.28;;
21000;SDS011;10658;50.920;12.238;2023-01-01T02:45:39;4.03;;;2.80;;
21000;SDS011;10658;50.920;12.238;2023-01-01T02:49:44;5.20;;;2.80;;
21000;SDS011;10658;50.920;12.238;2023-01-01T02:58:24;5.95;;;2.95;;
21000;SDS011;10658;50.920;12.238;2023-01-01T03:11:45;6.70;;;3.17;;
21000;SDS011;10658;50.920;12.238;2023-01-01T03:20:35;5.18;;;3.03;;
21000;SDS011;10658;50.920;12.238;2023-01-01T03:28:55;2.97;;;2.65;;
21000;SDS011;10658;50.920;12.238;2023-01-01T03:32:59;4.82;;;2.88;;
21000;SDS011;10658;50.920;12.238;2023-01-01T03:37:23;3.30;;;2.83;;
21000;SDS011;10658;50.920;12.238;2023-01-01T03:41:39;4.93;;;2.55;;
21000;SDS011;10658;50.920;12.238;2023-01-01T03:45:46;4.57;;;2.90;;
21000;SDS011;10658;50.920;12.238;2023-01-01T03:49:50;2.92;;;2.08;;
21000;SDS011;10658;50.920;12.238;2023-01-01T03:53:52;4.18;;;2.72;;
21000;SDS011;10658;50.920;12.238;2023-01-01T03:58:00;3.53;;;2.42;;
21000;SDS011;10658;50.920;12.238;2023-01-01T04:02:03;2.65;;;2.33;;
21000;SDS011;10658;50.920;12.238;2023-01-01T04:06:08;4.03;;;2.90;;
21000;SDS011;10658;50.920;12.238;2023-01-01T04:10:12;4.85;;;2.97;;
21000;SDS011;10658;50.920;12.238;2023-01-01T04:22:57;2.63;;;1.95;;
21000;SDS011;10658;50.920;12.238;2023-01-01T04:26:59;3.10;;;1.98;;
21000;SDS011;10658;50.920;12.238;2023-01-01T04:31:01;3.97;;;2.17;;
21000;SDS011;10658;50.920;12.238;2023-01-01T04:35:02;4.53;;;2.53;;
21000;SDS011;10658;50.920;12.238;2023-01-01T04:39:05;3.70;;;2.30;;
21000;SDS011;10658;50.920;12.238;2023-01-01T04:43:07;4.50;;;2.60;;
21000;SDS011;10658;50.920;12.238;2023-01-01T04:47:08;6.15;;;2.78;;
21000;SDS011;10658;50.920;12.238;2023-01-01T04:51:10;4.47;;;2.90;;
21000;SDS011;10658;50.920;12.238;2023-01-01T04:55:14;5.25;;;2.85;;
21000;SDS011;10658;50.920;12.238;2023-01-01T04:59:15;3.38;;;2.83;;
21000;SDS011;10658;50.920;12.238;2023-01-01T05:03:17;4.70;;;2.88;;
21000;SDS011;10658;50.920;12.238;2023-01-01T05:07:19;5.55;;;2.65;;
21000;SDS011;10658;50.920;12.238;2023-01-01T05:11:23;3.28;;;2.20;;
21000;SDS011;10658;50.920;12.238;2023-01-01T05:15:25;2.30;;;1.95;;
21000;SDS011;10658;50.920;12.238;2023-01-01T05:19:27;6.10;;;3.30;;
21000;SDS011;10658;50.920;12.238;2023-01-01T05:23:29;3.65;;;2.40;;
21000;SDS011;10658;50.920;12.238;2023-01-01T05:27:30;5.47;;;2.78;;
21000;SDS011;10658;50.920;12.238;2023-01-01T05:31:34;4.32;;;2.95;;
21000;SDS011;10658;50.920;12.238;2023-01-01T05:35:36;3.67;;;2.58;;
21000;SDS011;10658;50.920;12.238;2023-01-01T05:39:37;3.28;;;2.38;;
21000;SDS011;10658;50.920;12.238;2023-01-01T05:43:42;4.00;;;2.88;;
21000;SDS011;10658;50.920;12.238;2023-01-01T05:47:46;5.20;;;3.03;;
21000;SDS011;10658;50.920;12.238;2023-01-01T05:51:48;3.50;;;2.58;;
21000;SDS011;10658;50.920;12.238;2023-01-01T05:55:53;4.10;;;2.17;;
21000;SDS011;10658;50.920;12.238;2023-01-01T05:59:55;8.77;;;3.05;;
21000;SDS011;10658;50.920;12.238;2023-01-01T06:03:58;4.55;;;3.30;;
21000;SDS011;10658;50.920;12.238;2023-01-01T06:08:01;4.72;;;3.50;;
21000;SDS011;10658;50.920;12.238;2023-01-01T06:12:04;6.00;;;3.42;;
21000;SDS011;10658;50.920;12.238;2023-01-01T06:16:06;6.47;;;3.40;;
21000;SDS011;10658;50.920;12.238;2023-01-01T06:20:11;5.15;;;3.50;;
21000;SDS011;10658;50.920;12.238;2023-01-01T06:24:15;6.55;;;3.70;;
21000;SDS011;10658;50.920;12.238;2023-01-01T06:28:16;6.13;;;3.60;;
21000;SDS011;10658;50.920;12.238;2023-01-01T06:32:19;4.95;;;3.42;;
21000;SDS011;10658;50.920;12.238;2023-01-01T06:36:35;4.40;;;2.67;;
21000;SDS011;10658;50.920;12.238;2023-01-01T06:45:35;4.38;;;2.88;;
21000;SDS011;10658;50.920;12.238;2023-01-01T06:49:37;5.80;;;2.95;;
21000;SDS011;10658;50.920;12.238;2023-01-01T06:53:47;7.28;;;3.70;;
21000;SDS011;10658;50.920;12.238;2023-01-01T06:57:50;6.28;;;3.35;;
21000;SDS011;10658;50.920;12.238;2023-01-01T07:01:52;6.32;;;3.05;;
21000;SDS011;10658;50.920;12.238;2023-01-01T07:05:53;6.13;;;2.88;;
21000;SDS011;10658;50.920;12.238;2023-01-01T07:09:55;6.38;;;3.83;;
21000;SDS011;10658;50.920;12.238;2023-01-01T07:13:57;6.05;;;3.88;;
21000;SDS011;10658;50.920;12.238;2023-01-01T07:17:58;6.43;;;4.13;;
21000;SDS011;10658;50.920;12.238;2023-01-01T07:22:01;5.85;;;3.92;;
21000;SDS011;10658;50.920;12.238;2023-01-01T07:26:04;8.27;;;3.70;;
21000;SDS011;10658;50.920;12.238;2023-01-01T07:30:06;8.93;;;4.15;;
21000;SDS011;10658;50.920;12.238;2023-01-01T07:34:14;6.70;;;4.18;;
21000;SDS011;10658;50.920;12.238;2023-01-01T07:38:19;6.97;;;4.45;;
21000;SDS011;10658;50.920;12.238;2023-01-01T07:42:20;5.45;;;3.97;;
21000;SDS011;10658;50.920;12.238;2023-01-01T07:46:21;6.80;;;3.72;;
21000;SDS011;10658;50.920;12.238;2023-01-01T07:50:28;6.05;;;3.70;;
21000;SDS011;10658;50.920;12.238;2023-01-01T07:54:31;8.27;;;3.83;;
21000;SDS011;10658;50.920;12.238;2023-01-01T07:58:33;7.13;;;3.95;;
21000;SDS011;10658;50.920;12.238;2023-01-01T08:02:37;4.95;;;3.65;;
21000;SDS011;10658;50.920;12.238;2023-01-01T08:06:39;6.78;;;4.05;;
21000;SDS011;10658;50.920;12.238;2023-01-01T08:10:42;7.88;;;3.97;;
21000;SDS011;10658;50.920;12.238;2023-01-01T08:14:45;7.13;;;4.20;;
21000;SDS011;10658;50.920;12.238;2023-01-01T08:18:46;6.93;;;4.47;;
21000;SDS011;10658;50.920;12.238;2023-01-01T08:22:48;7.38;;;3.90;;
21000;SDS011;10658;50.920;12.238;2023-01-01T08:26:51;8.55;;;3.58;;
21000;SDS011;10658;50.920;12.238;2023-01-01T08:30:53;6.93;;;3.15;;
21000;SDS011;10658;50.920;12.238;2023-01-01T08:34:55;4.97;;;3.15;;
21000;SDS011;10658;50.920;12.238;2023-01-01T08:38:59;5.03;;;3.40;;
21000;SDS011;10658;50.920;12.238;2023-01-01T08:43:00;6.40;;;4.28;;
21000;SDS011;10658;50.920;12.238;2023-01-01T08:47:01;7.75;;;4.53;;
21000;SDS011;10658;50.920;12.238;2023-01-01T08:51:03;4.68;;;3.78;;
21000;SDS011;10658;50.920;12.238;2023-01-01T08:55:05;7.75;;;3.15;;
21000;SDS011;10658;50.920;12.238;2023-01-01T08:59:07;5.68;;;3.80;;
21000;SDS011;10658;50.920;12.238;2023-01-01T09:03:09;8.55;;;4.75;;
21000;SDS011;10658;50.920;12.238;2023-01-01T09:07:11;4.15;;;2.97;;
21000;SDS011;10658;50.920;12.238;2023-01-01T09:15:40;7.07;;;3.28;;
21000;SDS011;10658;50.920;12.238;2023-01-01T09:19:42;4.68;;;3.65;;
21000;SDS011;10658;50.920;12.238;2023-01-01T09:23:44;6.57;;;3.13;;
21000;SDS011;10658;50.920;12.238;2023-01-01T09:27:47;5.57;;;3.30;;
21000;SDS011;10658;50.920;12.238;2023-01-01T09:31:48;7.18;;;3.22;;
21000;SDS011;10658;50.920;12.238;2023-01-01T09:35:51;5.57;;;3.00;;
21000;SDS011;10658;50.920;12.238;2023-01-01T09:39:53;6.70;;;3.45;;
21000;SDS011;10658;50.920;12.238;2023-01-01T09:44:01;9.23;;;2.92;;
21000;SDS011;10658;50.920;12.238;2023-01-01T09:48:19;6.03;;;3.20;;
21000;SDS011;10658;50.920;12.238;2023-01-01T09:52:21;5.28;;;3.38;;
21000;SDS011;10658;50.920;12.238;2023-01-01T09:56:26;5.38;;;2.78;;
21000;SDS011;10658;50.920;12.238;2023-01-01T10:00:30;6.40;;;3.13;;
21000;SDS011;10658;50.920;12.238;2023-01-01T10:22:54;3.88;;;2.30;;
21000;SDS011;10658;50.920;12.238;2023-01-01T10:32:27;3.83;;;2.78;;
21000;SDS011;10658;50.920;12.238;2023-01-01T10:41:25;5.00;;;2.95;;
21000;SDS011;10658;50.920;12.238;2023-01-01T10:45:47;3.92;;;2.13;;
21000;SDS011;10658;50.920;12.238;2023-01-01T10:50:01;4.47;;;2.65;;
21000;SDS011;10658;50.920;12.238;2023-01-01T10:58:39;4.40;;;2.40;;
21000;SDS011;10658;50.920;12.238;2023-01-01T11:02:42;5.72;;;2.53;;
21000;SDS011;10658;50.920;12.238;2023-01-01T11:10:57;4.97;;;3.08;;
21000;SDS011;10658;50.920;12.238;2023-01-01T11:15:06;9.15;;;3.03;;
21000;SDS011;10658;50.920;12.238;2023-01-01T11:24:47;7.80;;;2.70;;
21000;SDS011;10658;50.920;12.238;2023-01-01T11:38:37;6.50;;;2.47;;
21000;SDS011;10658;50.920;12.238;2023-01-01T11:42:41;10.15;;;3.35;;
21000;SDS011;10658;50.920;12.238;2023-01-01T11:46:46;6.75;;;2.33;;
21000;SDS011;10658;50.920;12.238;2023-01-01T11:50:53;4.18;;;2.60;;
21000;SDS011;10658;50.920;12.238;2023-01-01T11:55:08;4.35;;;2.75;;
21000;SDS011;10658;50.920;12.238;2023-01-01T11:59:51;5.75;;;2.70;;
21000;SDS011;10658;50.920;12.238;2023-01-01T12:08:05;6.80;;;2.78;;
21000;SDS011;10658;50.920;12.238;2023-01-01T12:12:25;6.38;;;2.28;;
21000;SDS011;10658;50.920;12.238;2023-01-01T12:40:10;5.65;;;2.38;;
21000;SDS011;10658;50.920;12.238;2023-01-01T12:53:14;7.43;;;2.70;;
21000;SDS011;10658;50.920;12.238;2023-01-01T13:02:57;7.70;;;2.80;;
21000;SDS011;10658;50.920;12.238;2023-01-01T13:07:02;4.03;;;1.58;;
21000;SDS011;10658;50.920;12.238;2023-01-01T13:21:56;4.28;;;2.28;;
21000;SDS011;10658;50.920;12.238;2023-01-01T13:40:00;4.85;;;1.88;;
21000;SDS011;10658;50.920;12.238;2023-01-01T13:44:24;8.32;;;2.80;;
21000;SDS011;10658;50.920;12.238;2023-01-01T13:53:59;6.10;;;3.13;;
21000;SDS011;10658;50.920;12.238;2023-01-01T14:02:56;6.07;;;2.85;;
21000;SDS011;10658;50.920;12.238;2023-01-01T14:12:27;11.43;;;4.45;;
21000;SDS011;10658;50.920;12.238;2023-01-01T14:16:29;8.90;;;5.30;;
21000;SDS011;10658;50.920;12.238;2023-01-01T14:20:39;6.97;;;3.22;;
21000;SDS011;10658;50.920;12.238;2023-01-01T14:24:45;7.93;;;3.55;;
21000;SDS011;10658;50.920;12.238;2023-01-01T14:29:08;9.48;;;6.07;;
21000;SDS011;10658;50.920;12.238;2023-01-01T14:33:27;6.85;;;3.95;;
21000;SDS011;10658;50.920;12.238;2023-01-01T14:42:58;7.28;;;4.70;;
21000;SDS011;10658;50.920;12.238;2023-01-01T14:52:29;8.60;;;4.75;;
21000;SDS011;10658;50.920;12.238;2023-01-01T14:56:40;9.75;;;5.45;;
21000;SDS011;10658;50.920;12.238;2023-01-01T15:01:21;7.25;;;3.97;;
21000;SDS011;10658;50.920;12.238;2023-01-01T15:09:33;9.95;;;7.18;;
21000;SDS011;10658;50.920;12.238;2023-01-01T15:13:58;8.02;;;4.80;;
21000;SDS011;10658;50.920;12.238;2023-01-01T15:28:29;36.03;;;18.88;;
21000;SDS011;10658;50.920;12.238;2023-01-01T15:43:24;13.70;;;6.13;;
21000;SDS011;10658;50.920;12.238;2023-01-01T15:53:21;13.90;;;5.90;;
21000;SDS011;10658;50.920;12.238;2023-01-01T15:57:56;11.60;;;5.85;;
21000;SDS011;10658;50.920;12.238;2023-01-01T16:06:53;18.98;;;9.45;;
21000;SDS011;10658;50.920;12.238;2023-01-01T16:11:18;9.38;;;6.20;;
21000;SDS011;10658;50.920;12.238;2023-01-01T16:15:58;5.95;;;3.47;;
21000;SDS011;10658;50.920;12.238;2023-01-01T16:20:50;4.10;;;3.70;;
21000;SDS011;10658;50.920;12.238;2023-01-01T16:30:30;6.90;;;3.55;;
21000;SDS011;10658;50.920;12.238;2023-01-01T16:34:54;11.20;;;4.28;;
21000;SDS011;10658;50.920;12.238;2023-01-01T16:38:58;6.28;;;3.33;;
21000;SDS011;10658;50.920;12.238;2023-01-01T16:43:23;8.02;;;3.80;;
21000;SDS011;10658;50.920;12.238;2023-01-01T16:47:49;6.20;;;3.33;;
21000;SDS011;10658;50.920;12.238;2023-01-01T16:52:13;7.32;;;3.45;;
21000;SDS011;10658;50.920;12.238;2023-01-01T16:56:33;5.45;;;2.78;;
21000;SDS011;10658;50.920;12.238;2023-01-01T17:00:44;9.10;;;3.45;;
21000;SDS011;10658;50.920;12.238;2023-01-01T17:05:02;4.47;;;2.47;;
21000;SDS011;10658;50.920;12.238;2023-01-01T17:09:20;10.00;;;4.95;;
21000;SDS011;10658;50.920;12.238;2023-01-01T17:13:56;6.03;;;3.30;;
21000;SDS011;10658;50.920;12.238;2023-01-01T17:23:25;9.80;;;4.20;;
21000;SDS011;10658;50.920;12.238;2023-01-01T17:27:50;8.13;;;5.50;;
21000;SDS011;10658;50.920;12.238;2023-01-01T17:31:51;7.72;;;4.43;;
21000;SDS011;10658;50.920;12.238;2023-01-01T17:35:52;13.25;;;7.53;;
21000;SDS011;10658;50.920;12.238;2023-01-01T17:40:23;15.52;;;6.55;;
21000;SDS011;10658;50.920;12.238;2023-01-01T17:44:36;14.52;;;6.63;;
21000;SDS011;10658;50.920;12.238;2023-01-01T17:49:04;7.10;;;3.92;;
21000;SDS011;10658;50.920;12.238;2023-01-01T17:53:28;5.50;;;3.20;;
21000;SDS011;10658;50.920;12.238;2023-01-01T18:02:10;7.30;;;3.30;;
21000;SDS011;10658;50.920;12.238;2023-01-01T18:06:13;10.40;;;4.07;;
21000;SDS011;10658;50.920;12.238;2023-01-01T18:10:20;8.65;;;3.80;;
21000;SDS011;10658;50.920;12.238;2023-01-01T18:14:30;7.70;;;3.42;;
21000;SDS011;10658;50.920;12.238;2023-01-01T18:23:11;8.48;;;4.05;;
21000;SDS011;10658;50.920;12.238;2023-01-01T18:27:29;9.57;;;5.75;;
21000;SDS011;10658;50.920;12.238;2023-01-01T18:31:45;8.85;;;5.18;;
21000;SDS011;10658;50.920;12.238;2023-01-01T18:36:10;44.80;;;23.75;;
21000;SDS011;10658;50.920;12.238;2023-01-01T18:40:25;52.05;;;27.33;;
21000;SDS011;10658;50.920;12.238;2023-01-01T18:44:40;24.05;;;14.98;;
21000;SDS011;10658;50.920;12.238;2023-01-01T18:49:17;10.32;;;6.18;;
21000;SDS011;10658;50.920;12.238;2023-01-01T18:53:29;13.68;;;7.85;;
21000;SDS011;10658;50.920;12.238;2023-01-01T18:57:58;7.80;;;5.05;;
21000;SDS011;10658;50.920;12.238;2023-01-01T19:06:51;7.53;;;5.28;;
21000;SDS011;10658;50.920;12.238;2023-01-01T19:11:07;10.93;;;6.88;;
21000;SDS011;10658;50.920;12.238;2023-01-01T19:15:43;7.32;;;5.38;;
21000;SDS011;10658;50.920;12.238;2023-01-01T19:20:32;15.63;;;9.90;;
21000;SDS011;10658;50.920;12.238;2023-01-01T19:25:00;11.43;;;5.53;;
21000;SDS011;10658;50.920;12.238;2023-01-01T19:38:07;22.83;;;13.75;;
21000;SDS011;10658;50.920;12.238;2023-01-01T19:42:13;14.65;;;9.30;;
21000;SDS011;10658;50.920;12.238;2023-01-01T19:46:24;9.30;;;6.60;;
21000;SDS011;10658;50.920;12.238;2023-01-01T19:50:45;9.55;;;4.95;;
21000;SDS011;10658;50.920;12.238;2023-01-01T19:55:20;7.28;;;3.78;;
21000;SDS011;10658;50.920;12.238;2023-01-01T19:59:32;11.02;;;5.32;;
21000;SDS011;10658;50.920;12.238;2023-01-01T20:08:16;10.93;;;4.25;;
21000;SDS011;10658;50.920;12.238;2023-01-01T20:12:38;5.60;;;3.97;;
21000;SDS011;10658;50.920;12.238;2023-01-01T20:17:18;10.40;;;3.17;;
21000;SDS011;10658;50.920;12.238;2023-01-01T20:21:33;6.35;;;3.33;;
21000;SDS011;10658;50.920;12.238;2023-01-01T20:26:12;7.85;;;4.00;;
21000;SDS011;10658;50.920;12.238;2023-01-01T20:30:26;9.95;;;4.13;;
21000;SDS011;10658;50.920;12.238;2023-01-01T20:39:29;7.07;;;4.15;;
21000;SDS011;10658;50.920;12.238;2023-01-01T20:43:48;19.95;;;9.90;;
21000;SDS011;10658;50.920;12.238;2023-01-01T20:48:30;24.50;;;11.13;;
21000;SDS011;10658;50.920;12.238;2023-01-01T20:57:43;8.88;;;5.07;;
21000;SDS011;10658;50.920;12.238;2023-01-01T21:01:54;6.95;;;4.65;;
21000;SDS011;10658;50.920;12.238;2023-01-01T21:06:05;12.30;;;5.88;;
21000;SDS011;10658;50.920;12.238;2023-01-01T21:10:11;15.95;;;8.93;;
21000;SDS011;10658;50.920;12.238;2023-01-01T21:14:30;17.10;;;7.45;;
21000;SDS011;10658;50.920;12.238;2023-01-01T21:19:05;9.02;;;4.20;;
21000;SDS011;10658;50.920;12.238;2023-01-01T21:28:24;11.38;;;5.20;;
21000;SDS011;10658;50.920;12.238;2023-01-01T21:32:40;5.13;;;3.55;;
21000;SDS011;10658;50.920;12.238;2023-01-01T21:37:37;7.00;;;4.00;;
21000;SDS011;10658;50.920;12.238;2023-01-01T21:41:57;9.20;;;4.75;;
21000;SDS011;10658;50.920;12.238;2023-01-01T21:47:02;7.20;;;4.57;;
21000;SDS011;10658;50.920;12.238;2023-01-01T21:56:34;7.70;;;5.07;;
21000;SDS011;10658;50.920;12.238;2023-01-01T22:10:39;10.45;;;5.65;;
21000;SDS011;10658;50.920;12.238;2023-01-01T22:24:51;12.20;;;5.95;;
21000;SDS011;10658;50.920;12.238;2023-01-01T22:34:23;9.15;;;5.35;;
21000;SDS011;10658;50.920;12.238;2023-01-01T22:38:42;9.07;;;5.93;;
21000;SDS011;10658;50.920;12.238;2023-01-01T22:56:53;7.65;;;4.63;;
21000;SDS011;10658;50.920;12.238;2023-01-01T23:01:14;9.40;;;4.80;;
21000;SDS011;10658;50.920;12.238;2023-01-01T23:05:39;7.50;;;4.53;;
21000;SDS011;10658;50.920;12.238;2023-01-01T23:10:11;8.32;;;4.80;;
21000;SDS011;10658;50.920;12.238;2023-01-01T23:14:58;9.27;;;4.90;;
21000;SDS011;10658;50.920;12.238;2023-01-01T23:19:57;9.02;;;5.10;;
21000;SDS011;10658;50.920;12.238;2023-01-01T23:24:36;6.70;;;4.43;;
21000;SDS011;10658;50.920;12.238;2023-01-01T23:28:37;8.00;;;4.72;;
21000;SDS011;10658;50.920;12.238;2023-01-01T23:32:43;6.38;;;4.53;;
21000;SDS011;10658;50.920;12.238;2023-01-01T23:37:32;8.05;;;4.60;;
21000;SDS011;10658;50.920;12.238;2023-01-01T23:41:45;5.82;;;3.40;;
21000;SDS011;10658;50.920;12.238;2023-01-01T23:46:17;7.85;;;4.72;;
21000;SDS011;10658;50.920;12.238;2023-01-01T23:50:44;9.07;;;4.78;;
21000;SDS011;10658;50.920;12.238;2023-01-01T23:59:25;5.10;;;3.80;;
